createdAt,value
2019-05-15T00:00:38.458Z,82.97
2019-05-15T00:01:40.679Z,83.76
2019-05-15T00:02:38.558Z,83.59
2019-05-15T00:03:38.864Z,83.18
2019-05-15T00:04:38.238Z,83.14
2019-05-15T00:05:38.673Z,83.18
2019-05-15T00:06:36.154Z,83.91
2019-05-15T00:07:38.789Z,84.64
2019-05-15T00:08:38.452Z,84.84
2019-05-15T00:09:39.594Z,84.70
2019-05-15T00:10:38.995Z,84.12
2019-05-15T00:11:36.095Z,83.49
2019-05-15T00:12:36.085Z,83.59
2019-05-15T00:13:36.078Z,82.55
2019-05-15T00:14:36.089Z,83.59
2019-05-15T00:15:36.044Z,84.01
2019-05-15T00:16:38.431Z,84.22
2019-05-15T00:17:36.026Z,84.43
2019-05-15T00:18:36.027Z,82.65
2019-05-15T00:19:36.009Z,83.22
2019-05-15T00:20:36.006Z,83.74
2019-05-15T00:21:38.085Z,84.88
2019-05-15T00:22:36.000Z,84.64
2019-05-15T00:23:38.537Z,84.67
2019-05-15T00:24:38.023Z,84.05
2019-05-15T00:25:35.964Z,83.84
2019-05-15T00:26:38.359Z,84.05
2019-05-15T00:27:38.313Z,84.36
2019-05-15T00:28:35.934Z,84.72
2019-05-15T00:29:38.199Z,83.63
2019-05-15T00:30:38.475Z,83.78
2019-05-15T00:31:35.891Z,83.42
2019-05-15T00:32:35.857Z,84.72
2019-05-15T00:33:35.870Z,84.61
2019-05-15T00:34:37.790Z,85.13
2019-05-15T00:35:35.831Z,85.10
2019-05-15T00:36:38.114Z,84.50
2019-05-15T00:37:38.440Z,84.61
2019-05-15T00:38:35.790Z,84.09
2019-05-15T00:39:35.802Z,84.92
2019-05-15T00:40:38.804Z,85.03
2019-05-15T00:41:48.278Z,85.86
2019-05-15T00:42:38.490Z,85.76
2019-05-15T00:43:35.738Z,85.44
2019-05-15T00:44:35.731Z,85.76
2019-05-15T00:45:35.745Z,85.69
2019-05-15T00:46:35.709Z,86.07
2019-05-15T00:47:35.691Z,86.18
2019-05-15T00:48:35.698Z,86.91
2019-05-15T00:49:38.066Z,86.59
2019-05-15T00:50:35.659Z,86.69
2019-05-15T00:51:35.676Z,86.80
2019-05-15T00:52:35.679Z,86.80
2019-05-15T00:53:35.618Z,86.80
2019-05-15T00:54:35.647Z,87.32
2019-05-15T00:55:37.882Z,87.26
2019-05-15T00:56:35.594Z,86.74
2019-05-15T00:57:35.610Z,86.43
2019-05-15T00:58:35.562Z,86.49
2019-05-15T00:59:35.552Z,86.63
2019-05-15T01:00:38.035Z,86.94
2019-05-15T01:01:38.011Z,86.74
2019-05-15T01:02:35.519Z,86.84
2019-05-15T01:03:35.538Z,86.69
2019-05-15T01:04:35.490Z,86.80
2019-05-15T01:05:35.513Z,86.69
2019-05-15T01:06:35.471Z,87.53
2019-05-15T01:07:35.462Z,87.12
2019-05-15T01:08:35.458Z,86.49
2019-05-15T01:09:35.461Z,86.59
2019-05-15T01:10:35.433Z,86.45
2019-05-15T01:11:35.428Z,86.66
2019-05-15T01:12:37.890Z,87.07
2019-05-15T01:13:35.401Z,87.60
2019-05-15T01:14:35.384Z,87.39
2019-05-15T01:15:35.395Z,87.39
2019-05-15T01:16:35.383Z,87.28
2019-05-15T01:17:35.352Z,87.39
2019-05-15T01:18:35.336Z,87.49
2019-05-15T01:19:35.334Z,87.49
2019-05-15T01:20:35.319Z,87.60
2019-05-15T01:21:35.337Z,87.66
2019-05-15T01:22:35.321Z,87.70
2019-05-15T01:23:35.285Z,88.08
2019-05-15T01:24:35.278Z,88.01
2019-05-15T01:25:35.259Z,86.93
2019-05-15T01:26:35.250Z,87.24
2019-05-15T01:27:35.256Z,86.83
2019-05-15T01:28:35.269Z,86.41
2019-05-15T01:29:41.916Z,86.51
2019-05-15T01:30:36.214Z,86.51
2019-05-15T01:31:35.196Z,86.51
2019-05-15T01:32:35.183Z,86.72
2019-05-15T01:33:35.195Z,87.04
2019-05-15T01:34:35.188Z,85.78
2019-05-15T01:35:35.158Z,85.58
2019-05-15T01:36:35.134Z,86.20
2019-05-15T01:37:35.140Z,87.04
2019-05-15T01:38:35.115Z,86.51
2019-05-15T01:39:35.145Z,86.27
2019-05-15T01:40:35.101Z,86.68
2019-05-15T01:41:35.081Z,86.68
2019-05-15T01:42:35.072Z,86.68
2019-05-15T01:43:35.058Z,86.68
2019-05-15T01:44:35.049Z,86.79
2019-05-15T01:45:35.108Z,86.58
2019-05-15T01:46:35.027Z,87.41
2019-05-15T01:47:35.015Z,86.68
2019-05-15T01:48:35.008Z,86.27
2019-05-15T01:49:35.015Z,86.68
2019-05-15T01:50:34.985Z,86.54
2019-05-15T01:51:35.009Z,86.54
2019-05-15T01:52:34.960Z,86.54
2019-05-15T01:53:34.955Z,86.79
2019-05-15T01:54:34.941Z,86.65
2019-05-15T01:55:34.924Z,86.54
2019-05-15T01:56:34.941Z,87.06
2019-05-15T01:57:34.928Z,86.54
2019-05-15T01:58:34.890Z,86.33
2019-05-15T01:59:34.886Z,85.60
2019-05-15T02:00:34.868Z,85.50
2019-05-15T02:01:34.859Z,85.91
2019-05-15T02:02:35.057Z,85.71
2019-05-15T02:03:34.850Z,86.02
2019-05-15T02:04:34.837Z,85.91
2019-05-15T02:05:34.818Z,85.50
2019-05-15T02:06:34.799Z,85.50
2019-05-15T02:07:34.786Z,85.71
2019-05-15T02:08:34.799Z,85.39
2019-05-15T02:09:34.801Z,84.98
2019-05-15T02:10:34.765Z,84.87
2019-05-15T02:11:34.764Z,83.73
2019-05-15T02:12:34.763Z,83.62
2019-05-15T02:13:34.723Z,83.00
2019-05-15T02:14:34.749Z,82.79
2019-05-15T02:15:34.729Z,83.10
2019-05-15T02:16:34.690Z,83.00
2019-05-15T02:17:34.675Z,83.52
2019-05-15T02:18:34.662Z,83.00
2019-05-15T02:19:34.658Z,82.89
2019-05-15T02:20:34.670Z,82.79
2019-05-15T02:21:34.654Z,82.27
2019-05-15T02:22:34.627Z,82.06
2019-05-15T02:23:34.616Z,81.12
2019-05-15T02:24:34.600Z,82.06
2019-05-15T02:25:34.625Z,82.89
2019-05-15T02:26:34.579Z,83.00
2019-05-15T02:27:34.591Z,83.10
2019-05-15T02:28:34.550Z,83.90
2019-05-15T02:29:34.542Z,84.11
2019-05-15T02:30:35.371Z,84.52
2019-05-15T02:31:34.536Z,84.42
2019-05-15T02:32:34.531Z,84.83
2019-05-15T02:33:34.501Z,85.25
2019-05-15T02:34:34.492Z,85.25
2019-05-15T02:35:34.495Z,85.46
2019-05-15T02:36:34.494Z,85.67
2019-05-15T02:37:34.463Z,85.46
2019-05-15T02:38:34.499Z,85.25
2019-05-15T02:39:34.438Z,85.31
2019-05-15T02:40:34.425Z,85.35
2019-05-15T02:41:34.408Z,84.73
2019-05-15T02:42:34.421Z,84.73
2019-05-15T02:43:34.393Z,83.90
2019-05-15T02:44:34.395Z,83.52
2019-05-15T02:45:40.685Z,83.80
2019-05-15T02:46:35.350Z,83.62
2019-05-15T02:47:34.341Z,84.11
2019-05-15T02:48:34.353Z,83.69
2019-05-15T02:49:34.325Z,83.37
2019-05-15T02:50:34.333Z,83.48
2019-05-15T02:51:34.306Z,83.69
2019-05-15T02:52:34.289Z,84.00
2019-05-15T02:53:34.287Z,84.11
2019-05-15T02:54:34.304Z,84.52
2019-05-15T02:55:34.258Z,83.80
2019-05-15T02:56:34.272Z,83.27
2019-05-15T02:57:34.228Z,83.48
2019-05-15T02:58:34.217Z,83.58
2019-05-15T02:59:34.216Z,82.86
2019-05-15T03:00:44.053Z,82.75
2019-05-15T03:01:35.182Z,82.34
2019-05-15T03:02:34.199Z,82.65
2019-05-15T03:03:34.162Z,82.13
2019-05-15T03:04:34.152Z,83.06
2019-05-15T03:05:34.147Z,83.48
2019-05-15T03:06:34.131Z,84.31
2019-05-15T03:07:34.127Z,84.21
2019-05-15T03:08:34.129Z,84.52
2019-05-15T03:09:34.093Z,84.52
2019-05-15T03:10:34.116Z,85.04
2019-05-15T03:11:34.069Z,85.46
2019-05-15T03:12:34.066Z,84.52
2019-05-15T03:13:34.064Z,85.04
2019-05-15T03:14:34.052Z,85.21
2019-05-15T03:15:34.032Z,84.42
2019-05-15T03:16:34.034Z,83.90
2019-05-15T03:17:34.010Z,83.37
2019-05-15T03:18:33.995Z,83.58
2019-05-15T03:19:33.985Z,84.21
2019-05-15T03:20:33.994Z,83.06
2019-05-15T03:21:38.821Z,83.58
2019-05-15T03:22:33.973Z,83.58
2019-05-15T03:23:33.948Z,83.58
2019-05-15T03:24:33.938Z,83.48
2019-05-15T03:25:33.945Z,83.58
2019-05-15T03:26:33.905Z,83.90
2019-05-15T03:27:34.890Z,84.63
2019-05-15T03:28:33.888Z,84.52
2019-05-15T03:29:33.875Z,83.06
2019-05-15T03:31:04.751Z,82.86
2019-05-15T03:31:50.352Z,82.54
2019-05-15T03:32:43.814Z,83.69
2019-05-15T03:33:37.100Z,84.11
2019-05-15T03:34:38.356Z,84.52
2019-05-15T03:35:34.803Z,83.90
2019-05-15T03:36:33.834Z,84.11
2019-05-15T03:37:34.433Z,84.83
2019-05-15T03:38:33.796Z,85.35
2019-05-15T03:39:33.758Z,85.21
2019-05-15T03:40:33.855Z,84.69
2019-05-15T03:41:33.741Z,84.80
2019-05-15T03:42:33.755Z,85.31
2019-05-15T03:43:33.713Z,85.42
2019-05-15T03:44:33.732Z,85.94
2019-05-15T03:45:33.688Z,82.71
2019-05-15T03:46:33.681Z,81.57
2019-05-15T03:47:33.667Z,81.81
2019-05-15T03:48:33.680Z,81.88
2019-05-15T03:49:33.643Z,83.13
2019-05-15T03:50:33.643Z,84.69
2019-05-15T03:51:33.621Z,85.42
2019-05-15T03:52:33.610Z,84.59
2019-05-15T03:53:33.598Z,84.06
2019-05-15T03:54:33.609Z,84.06
2019-05-15T03:55:33.592Z,83.54
2019-05-15T03:56:33.557Z,82.71
2019-05-15T03:57:33.605Z,82.40
2019-05-15T03:58:33.545Z,81.36
2019-05-15T03:59:33.529Z,81.92
2019-05-15T04:00:33.548Z,82.44
2019-05-15T04:01:38.446Z,82.30
2019-05-15T04:02:34.506Z,82.44
2019-05-15T04:03:33.504Z,81.67
2019-05-15T04:04:33.475Z,81.77
2019-05-15T04:05:33.460Z,81.67
2019-05-15T04:06:33.510Z,82.30
2019-05-15T04:07:33.445Z,82.30
2019-05-15T04:08:33.428Z,81.88
2019-05-15T04:09:33.424Z,81.67
2019-05-15T04:10:33.411Z,81.77
2019-05-15T04:11:33.395Z,81.77
2019-05-15T04:12:33.446Z,81.67
2019-05-15T04:13:33.365Z,81.67
2019-05-15T04:14:33.364Z,82.09
2019-05-15T04:15:33.347Z,82.20
2019-05-15T04:16:33.356Z,82.30
2019-05-15T04:17:33.325Z,81.77
2019-05-15T04:18:33.350Z,81.57
2019-05-15T04:19:33.300Z,81.88
2019-05-15T04:20:33.337Z,81.77
2019-05-15T04:21:33.279Z,81.77
2019-05-15T04:22:33.271Z,81.88
2019-05-15T04:23:33.308Z,82.40
2019-05-15T04:24:33.326Z,82.71
2019-05-15T04:25:33.248Z,82.40
2019-05-15T04:26:33.267Z,82.61
2019-05-15T04:27:33.230Z,82.71
2019-05-15T04:28:33.196Z,83.03
2019-05-15T04:29:33.201Z,83.03
2019-05-15T04:30:33.195Z,82.82
2019-05-15T04:31:50.191Z,82.61
2019-05-15T04:32:34.148Z,82.30
2019-05-15T04:33:33.137Z,81.77
2019-05-15T04:34:33.153Z,81.46
2019-05-15T04:35:33.154Z,81.98
2019-05-15T04:36:33.135Z,81.57
2019-05-15T04:37:33.100Z,81.77
2019-05-15T04:38:33.092Z,82.09
2019-05-15T04:39:33.114Z,82.61
2019-05-15T04:40:33.073Z,82.82
2019-05-15T04:41:33.049Z,82.40
2019-05-15T04:42:33.062Z,82.40
2019-05-15T04:43:41.411Z,82.20
2019-05-15T04:44:34.999Z,81.77
2019-05-15T04:45:35.216Z,81.77
2019-05-15T04:46:33.005Z,81.98
2019-05-15T04:47:33.000Z,82.51
2019-05-15T04:48:32.997Z,82.61
2019-05-15T04:49:32.964Z,82.82
2019-05-15T04:50:32.949Z,82.82
2019-05-15T04:51:32.962Z,82.71
2019-05-15T04:52:32.923Z,83.65
2019-05-15T04:53:33.501Z,83.54
2019-05-15T04:54:32.949Z,83.44
2019-05-15T04:55:32.898Z,83.54
2019-05-15T04:56:32.880Z,83.13
2019-05-15T04:57:34.331Z,83.54
2019-05-15T04:58:32.864Z,83.54
2019-05-15T04:59:32.872Z,83.54
2019-05-15T05:00:32.862Z,83.03
2019-05-15T05:01:32.819Z,83.03
2019-05-15T05:02:32.811Z,83.03
2019-05-15T05:03:34.650Z,82.82
2019-05-15T05:04:32.786Z,82.71
2019-05-15T05:05:32.792Z,82.30
2019-05-15T05:06:32.802Z,82.92
2019-05-15T05:07:32.764Z,83.65
2019-05-15T05:08:33.024Z,82.61
2019-05-15T05:09:32.742Z,82.61
2019-05-15T05:10:32.728Z,82.82
2019-05-15T05:11:32.730Z,82.71
2019-05-15T05:12:32.747Z,82.61
2019-05-15T05:13:32.693Z,82.71
2019-05-15T05:14:32.720Z,83.23
2019-05-15T05:15:32.670Z,83.65
2019-05-15T05:16:32.664Z,83.54
2019-05-15T05:17:32.660Z,83.54
2019-05-15T05:18:32.659Z,82.99
2019-05-15T05:19:32.628Z,82.57
2019-05-15T05:20:32.620Z,82.68
2019-05-15T05:21:32.608Z,82.99
2019-05-15T05:22:32.605Z,82.99
2019-05-15T05:23:32.577Z,82.64
2019-05-15T05:24:32.629Z,82.99
2019-05-15T05:25:32.580Z,83.37
2019-05-15T05:26:32.549Z,83.47
2019-05-15T05:27:32.539Z,82.53
2019-05-15T05:28:32.534Z,82.12
2019-05-15T05:29:32.526Z,81.91
2019-05-15T05:30:32.549Z,82.12
2019-05-15T05:31:32.513Z,82.01
2019-05-15T05:32:35.152Z,82.32
2019-05-15T05:33:32.471Z,82.50
2019-05-15T05:34:32.447Z,81.25
2019-05-15T05:35:32.442Z,81.15
2019-05-15T05:36:32.453Z,81.60
2019-05-15T05:37:32.458Z,82.29
2019-05-15T05:38:32.417Z,82.08
2019-05-15T05:39:32.411Z,81.87
2019-05-15T05:40:32.384Z,81.77
2019-05-15T05:41:32.377Z,80.83
2019-05-15T05:42:32.370Z,80.90
2019-05-15T05:43:32.383Z,79.48
2019-05-15T05:44:32.333Z,80.83
2019-05-15T05:45:32.332Z,81.15
2019-05-15T05:46:32.323Z,81.25
2019-05-15T05:47:32.305Z,81.15
2019-05-15T05:48:32.318Z,80.83
2019-05-15T05:49:32.303Z,81.25
2019-05-15T05:50:32.286Z,79.31
2019-05-15T05:51:32.272Z,80.25
2019-05-15T05:52:32.251Z,80.94
2019-05-15T05:53:32.271Z,80.46
2019-05-15T05:54:32.223Z,81.35
2019-05-15T05:55:32.260Z,81.77
2019-05-15T05:56:32.204Z,81.77
2019-05-15T05:57:32.212Z,81.56
2019-05-15T05:58:32.172Z,81.67
2019-05-15T05:59:32.194Z,81.56
2019-05-15T06:00:32.852Z,81.87
2019-05-15T06:01:35.618Z,81.73
2019-05-15T06:02:43.667Z,79.69
2019-05-15T06:03:33.120Z,79.38
2019-05-15T06:04:32.111Z,79.17
2019-05-15T06:05:32.124Z,80.42
2019-05-15T06:06:32.094Z,80.80
2019-05-15T06:07:32.133Z,80.42
2019-05-15T06:08:32.068Z,81.25
2019-05-15T06:09:32.049Z,81.32
2019-05-15T06:10:32.064Z,80.38
2019-05-15T06:11:32.036Z,79.90
2019-05-15T06:12:32.034Z,81.01
2019-05-15T06:13:32.060Z,80.90
2019-05-15T06:14:31.993Z,80.28
2019-05-15T06:15:32.021Z,80.42
2019-05-15T06:16:31.972Z,79.44
2019-05-15T06:17:31.953Z,80.00
2019-05-15T06:18:31.953Z,80.73
2019-05-15T06:19:31.966Z,80.83
2019-05-15T06:20:31.924Z,80.42
2019-05-15T06:21:31.945Z,79.17
2019-05-15T06:22:31.898Z,79.10
2019-05-15T06:23:34.938Z,79.21
2019-05-15T06:24:31.884Z,80.15
2019-05-15T06:25:31.914Z,79.83
2019-05-15T06:26:31.857Z,80.87
2019-05-15T06:27:31.864Z,80.35
2019-05-15T06:28:31.845Z,79.14
2019-05-15T06:29:31.820Z,79.83
2019-05-15T06:30:31.819Z,81.49
2019-05-15T06:31:31.819Z,81.60
2019-05-15T06:32:31.791Z,81.91
2019-05-15T06:33:31.796Z,81.60
2019-05-15T06:34:31.767Z,81.46
2019-05-15T06:35:31.756Z,81.25
2019-05-15T06:36:31.742Z,79.38
2019-05-15T06:37:31.745Z,79.00
2019-05-15T06:38:31.727Z,79.31
2019-05-15T06:39:31.711Z,80.04
2019-05-15T06:40:31.697Z,80.11
2019-05-15T06:41:33.941Z,79.27
2019-05-15T06:42:31.669Z,80.52
2019-05-15T06:43:31.729Z,81.35
2019-05-15T06:44:31.648Z,80.42
2019-05-15T06:45:31.641Z,80.42
2019-05-15T06:46:31.636Z,79.48
2019-05-15T06:47:31.612Z,79.44
2019-05-15T06:48:31.603Z,78.75
2019-05-15T06:49:31.662Z,79.48
2019-05-15T06:50:31.585Z,79.13
2019-05-15T06:51:31.570Z,79.65
2019-05-15T06:52:31.558Z,78.82
2019-05-15T06:53:31.547Z,79.86
2019-05-15T06:54:31.532Z,80.18
2019-05-15T06:55:31.565Z,79.24
2019-05-15T06:56:31.515Z,79.24
2019-05-15T06:57:31.497Z,78.92
2019-05-15T06:58:31.490Z,77.58
2019-05-15T06:59:31.476Z,77.47
2019-05-15T07:00:31.515Z,77.99
2019-05-15T07:01:31.481Z,78.72
2019-05-15T07:02:31.456Z,78.82
2019-05-15T07:03:31.431Z,78.72
2019-05-15T07:04:32.349Z,78.78
2019-05-15T07:05:31.415Z,78.47
2019-05-15T07:06:31.413Z,78.47
2019-05-15T07:07:31.397Z,77.23
2019-05-15T07:08:31.377Z,75.36
2019-05-15T07:09:31.387Z,77.12
2019-05-15T07:10:31.371Z,76.92
2019-05-15T07:11:31.373Z,76.81
2019-05-15T07:12:31.331Z,77.33
2019-05-15T07:13:32.317Z,76.95
2019-05-15T07:14:31.331Z,78.78
2019-05-15T07:15:31.296Z,79.83
2019-05-15T07:16:31.307Z,80.52
2019-05-15T07:17:31.290Z,80.41
2019-05-15T07:18:31.262Z,78.65
2019-05-15T07:19:31.246Z,78.51
2019-05-15T07:20:31.242Z,76.95
2019-05-15T07:21:31.230Z,75.40
2019-05-15T07:22:31.224Z,75.50
2019-05-15T07:23:31.215Z,76.26
2019-05-15T07:24:31.201Z,75.54
2019-05-15T07:25:31.178Z,77.09
2019-05-15T07:26:31.161Z,76.61
2019-05-15T07:27:31.158Z,76.06
2019-05-15T07:28:31.212Z,76.78
2019-05-15T07:29:31.247Z,77.09
2019-05-15T07:30:31.119Z,75.57
2019-05-15T07:31:31.127Z,75.67
2019-05-15T07:32:31.112Z,76.95
2019-05-15T07:33:39.767Z,78.89
2019-05-15T07:34:32.087Z,78.58
2019-05-15T07:35:31.074Z,76.99
2019-05-15T07:36:31.070Z,76.78
2019-05-15T07:37:31.129Z,77.09
2019-05-15T07:38:31.026Z,75.74
2019-05-15T07:39:31.098Z,76.06
2019-05-15T07:40:31.028Z,76.85
2019-05-15T07:41:30.998Z,76.54
2019-05-15T07:42:30.986Z,78.72
2019-05-15T07:43:30.973Z,77.58
2019-05-15T07:44:30.991Z,76.23
2019-05-15T07:45:30.977Z,77.02
2019-05-15T07:46:30.944Z,75.78
2019-05-15T07:47:30.929Z,75.98
2019-05-15T07:48:30.926Z,76.61
2019-05-15T07:49:30.910Z,74.95
2019-05-15T07:50:30.946Z,75.78
2019-05-15T07:51:30.873Z,74.77
2019-05-15T07:52:30.869Z,74.01
2019-05-15T07:53:30.868Z,75.60
2019-05-15T07:54:30.853Z,76.02
2019-05-15T07:55:30.837Z,75.36
2019-05-15T07:56:30.860Z,75.50
2019-05-15T07:57:30.831Z,75.40
2019-05-15T07:58:30.806Z,75.09
2019-05-15T07:59:30.785Z,75.92
2019-05-15T08:00:30.787Z,75.92
2019-05-15T08:01:30.769Z,75.43
2019-05-15T08:02:30.795Z,76.37
2019-05-15T08:03:30.764Z,76.95
2019-05-15T08:04:33.064Z,77.37
2019-05-15T08:05:30.726Z,77.37
2019-05-15T08:06:30.710Z,76.75
2019-05-15T08:07:30.734Z,77.68
2019-05-15T08:08:30.706Z,78.82
2019-05-15T08:09:30.700Z,78.54
2019-05-15T08:10:30.674Z,76.29
2019-05-15T08:11:30.661Z,76.15
2019-05-15T08:12:30.644Z,75.26
2019-05-15T08:13:30.671Z,75.05
2019-05-15T08:14:30.631Z,75.26
2019-05-15T08:15:31.655Z,76.09
2019-05-15T08:16:32.438Z,76.09
2019-05-15T08:17:30.591Z,75.15
2019-05-15T08:18:30.577Z,75.32
2019-05-15T08:19:30.595Z,75.67
2019-05-15T08:20:30.561Z,75.98
2019-05-15T08:21:30.549Z,75.57
2019-05-15T08:22:30.561Z,76.88
2019-05-15T08:23:30.518Z,74.01
2019-05-15T08:24:30.505Z,74.11
2019-05-15T08:25:35.350Z,73.70
2019-05-15T08:26:31.478Z,75.26
2019-05-15T08:27:30.480Z,75.02
2019-05-15T08:28:30.495Z,74.08
2019-05-15T08:29:30.446Z,74.71
2019-05-15T08:30:30.493Z,74.29
2019-05-15T08:31:30.434Z,74.11
2019-05-15T08:32:30.416Z,76.15
2019-05-15T08:33:30.408Z,76.05
2019-05-15T08:34:30.394Z,73.98
2019-05-15T08:35:30.414Z,74.19
2019-05-15T08:36:31.345Z,75.09
2019-05-15T08:37:30.360Z,73.15
2019-05-15T08:38:30.347Z,72.74
2019-05-15T08:39:30.354Z,74.29
2019-05-15T08:40:30.326Z,73.57
2019-05-15T08:41:30.336Z,73.67
2019-05-15T08:42:32.264Z,74.60
2019-05-15T08:43:31.438Z,74.98
2019-05-15T08:44:30.278Z,70.67
2019-05-15T08:45:30.281Z,74.11
2019-05-15T08:46:30.258Z,74.19
2019-05-15T08:47:30.327Z,74.01
2019-05-15T08:48:32.742Z,73.67
2019-05-15T08:49:30.230Z,73.46
2019-05-15T08:50:30.213Z,75.02
2019-05-15T08:51:30.200Z,75.71
2019-05-15T08:52:30.184Z,74.36
2019-05-15T08:53:30.241Z,75.29
2019-05-15T08:54:30.172Z,75.09
2019-05-15T08:55:30.158Z,75.29
2019-05-15T08:56:30.157Z,74.57
2019-05-15T08:57:30.135Z,74.46
2019-05-15T08:58:30.154Z,74.81
2019-05-15T08:59:30.140Z,75.32
2019-05-15T09:00:30.118Z,75.53
2019-05-15T09:01:30.092Z,75.36
2019-05-15T09:02:30.089Z,76.05
2019-05-15T09:03:30.069Z,77.09
2019-05-15T09:04:34.857Z,78.02
2019-05-15T09:05:30.047Z,75.53
2019-05-15T09:06:30.035Z,75.57
2019-05-15T09:07:30.026Z,78.68
2019-05-15T09:08:30.026Z,79.30
2019-05-15T09:09:30.000Z,79.16
2019-05-15T09:10:30.022Z,78.85
2019-05-15T09:11:29.992Z,76.81
2019-05-15T09:12:29.962Z,78.44
2019-05-15T09:13:29.961Z,80.54
2019-05-15T09:14:29.935Z,81.02
2019-05-15T09:15:29.963Z,79.06
2019-05-15T09:16:29.981Z,79.06
2019-05-15T09:17:29.904Z,79.44
2019-05-15T09:18:29.958Z,79.54
2019-05-15T09:19:29.877Z,77.78
2019-05-15T09:20:29.891Z,78.81
2019-05-15T09:21:29.898Z,81.51
2019-05-15T09:22:29.875Z,81.30
2019-05-15T09:23:29.843Z,80.30
2019-05-15T09:24:29.831Z,80.88
2019-05-15T09:25:30.350Z,81.09
2019-05-15T09:26:29.801Z,81.40
2019-05-15T09:27:29.820Z,80.78
2019-05-15T09:28:29.881Z,81.30
2019-05-15T09:29:29.764Z,81.37
2019-05-15T09:30:29.766Z,80.64
2019-05-15T09:31:29.747Z,79.09
2019-05-15T09:32:29.751Z,81.20
2019-05-15T09:33:29.740Z,81.09
2019-05-15T09:34:46.453Z,81.16
2019-05-15T09:35:30.713Z,82.29
2019-05-15T09:36:29.702Z,81.84
2019-05-15T09:37:29.693Z,80.50
2019-05-15T09:38:29.698Z,81.95
2019-05-15T09:39:29.667Z,81.43
2019-05-15T09:40:42.533Z,81.64
2019-05-15T09:41:30.636Z,81.23
2019-05-15T09:42:29.641Z,81.43
2019-05-15T09:43:29.620Z,80.85
2019-05-15T09:44:29.664Z,81.16
2019-05-15T09:45:29.600Z,81.84
2019-05-15T09:46:29.580Z,83.12
2019-05-15T09:47:29.822Z,81.57
2019-05-15T09:48:29.557Z,82.05
2019-05-15T09:49:29.574Z,80.64
2019-05-15T09:50:29.562Z,81.05
2019-05-15T09:51:29.527Z,82.81
2019-05-15T09:52:30.166Z,82.19
2019-05-15T09:53:29.512Z,81.37
2019-05-15T09:54:29.576Z,83.02
2019-05-15T09:55:29.496Z,83.54
2019-05-15T09:56:29.465Z,83.23
2019-05-15T09:57:30.219Z,82.09
2019-05-15T09:58:30.279Z,81.54
2019-05-15T09:59:29.435Z,81.47
2019-05-15T10:00:29.567Z,81.40
2019-05-15T10:01:29.421Z,82.34
2019-05-15T10:02:29.446Z,83.83
2019-05-15T10:03:29.383Z,85.17
2019-05-15T10:04:29.396Z,85.13
2019-05-15T10:05:29.383Z,84.41
2019-05-15T10:06:29.382Z,84.09
2019-05-15T10:07:29.339Z,83.89
2019-05-15T10:08:29.460Z,84.55
2019-05-15T10:09:29.332Z,84.65
2019-05-15T10:10:29.305Z,85.27
2019-05-15T10:11:29.349Z,85.17
2019-05-15T10:12:34.576Z,85.79
2019-05-15T10:13:30.273Z,85.75
2019-05-15T10:14:29.733Z,84.82
2019-05-15T10:15:29.251Z,84.92
2019-05-15T10:16:29.243Z,85.24
2019-05-15T10:17:29.258Z,85.24
2019-05-15T10:18:29.232Z,83.58
2019-05-15T10:19:29.249Z,84.09
2019-05-15T10:20:29.298Z,83.68
2019-05-15T10:21:32.411Z,83.26
2019-05-15T10:22:29.168Z,83.47
2019-05-15T10:23:29.428Z,83.47
2019-05-15T10:24:29.211Z,83.58
2019-05-15T10:25:29.145Z,84.61
2019-05-15T10:26:29.125Z,83.68
2019-05-15T10:27:29.108Z,83.47
2019-05-15T10:28:29.563Z,84.09
2019-05-15T10:29:29.086Z,85.03
2019-05-15T10:30:29.140Z,84.09
2019-05-15T10:31:29.068Z,83.78
2019-05-15T10:32:29.241Z,83.78
2019-05-15T10:33:29.618Z,84.47
2019-05-15T10:34:29.060Z,84.09
2019-05-15T10:35:31.669Z,84.92
2019-05-15T10:36:29.035Z,85.24
2019-05-15T10:37:28.990Z,85.13
2019-05-15T10:38:28.981Z,85.09
2019-05-15T10:39:29.024Z,85.24
2019-05-15T10:40:29.747Z,85.24
2019-05-15T10:41:28.971Z,84.37
2019-05-15T10:42:29.161Z,85.24
2019-05-15T10:43:28.973Z,85.30
2019-05-15T10:44:28.916Z,84.30
2019-05-15T10:45:29.654Z,83.89
2019-05-15T10:46:28.895Z,85.03
2019-05-15T10:47:29.503Z,84.92
2019-05-15T10:48:29.442Z,86.47
2019-05-15T10:49:28.856Z,85.65
2019-05-15T10:50:28.860Z,86.17
2019-05-15T10:51:28.875Z,85.71
2019-05-15T10:52:28.848Z,85.92
2019-05-15T10:53:29.650Z,85.92
2019-05-15T10:54:29.379Z,86.23
2019-05-15T10:55:28.965Z,84.88
2019-05-15T10:56:29.305Z,84.47
2019-05-15T10:57:28.771Z,84.99
2019-05-15T10:58:28.801Z,84.51
2019-05-15T10:59:28.747Z,85.24
2019-05-15T11:00:28.778Z,85.44
2019-05-15T11:01:28.734Z,86.07
2019-05-15T11:02:29.059Z,86.68
2019-05-15T11:03:29.867Z,85.86
2019-05-15T11:04:28.957Z,85.55
2019-05-15T11:05:41.078Z,85.65
2019-05-15T11:06:29.672Z,86.21
2019-05-15T11:07:28.660Z,86.00
2019-05-15T11:08:29.152Z,85.89
2019-05-15T11:09:28.819Z,85.96
2019-05-15T11:10:29.067Z,86.99
2019-05-15T11:11:28.636Z,86.75
2019-05-15T11:12:29.231Z,86.37
2019-05-15T11:13:28.936Z,86.07
2019-05-15T11:14:28.803Z,86.75
2019-05-15T11:15:29.129Z,85.65
2019-05-15T11:16:28.592Z,84.72
2019-05-15T11:17:31.392Z,85.24
2019-05-15T11:18:30.763Z,85.75
2019-05-15T11:19:35.632Z,86.27
2019-05-15T11:20:29.514Z,86.07
2019-05-15T11:21:28.497Z,86.07
2019-05-15T11:22:29.904Z,86.17
2019-05-15T11:23:29.329Z,86.79
2019-05-15T11:24:32.202Z,86.17
2019-05-15T11:25:30.166Z,86.47
2019-05-15T11:26:33.242Z,87.41
2019-05-15T11:27:31.354Z,86.68
2019-05-15T11:28:31.499Z,85.86
2019-05-15T11:29:28.404Z,86.58
2019-05-15T11:30:28.427Z,86.21
2019-05-15T11:31:28.786Z,87.04
2019-05-15T11:32:29.409Z,86.87
2019-05-15T11:33:29.256Z,87.49
2019-05-15T11:34:28.999Z,88.21
2019-05-15T11:35:28.580Z,88.53
2019-05-15T11:36:28.935Z,88.42
2019-05-15T11:37:28.435Z,88.53
2019-05-15T11:38:28.901Z,87.59
2019-05-15T11:39:28.897Z,88.11
2019-05-15T11:40:28.537Z,88.42
2019-05-15T11:41:29.448Z,88.36
2019-05-15T11:42:28.995Z,88.15
2019-05-15T11:43:29.256Z,89.15
2019-05-15T11:44:28.439Z,89.36
2019-05-15T11:45:29.029Z,89.21
2019-05-15T11:46:29.146Z,89.52
2019-05-15T11:47:28.196Z,88.90
2019-05-15T11:48:29.869Z,89.21
2019-05-15T11:49:29.030Z,89.00
2019-05-15T11:50:29.234Z,89.21
2019-05-15T11:51:28.997Z,88.69
2019-05-15T11:52:29.438Z,89.11
2019-05-15T11:53:28.536Z,88.69
2019-05-15T11:54:28.425Z,89.00
2019-05-15T11:55:29.132Z,87.87
2019-05-15T11:56:29.605Z,88.59
2019-05-15T11:57:39.751Z,89.21
2019-05-15T11:58:28.293Z,88.21
2019-05-15T11:59:30.083Z,89.15
2019-05-15T12:00:30.334Z,88.63
2019-05-15T12:01:28.768Z,89.25
2019-05-15T12:02:29.299Z,89.56
2019-05-15T12:03:29.098Z,90.39
2019-05-15T12:04:33.861Z,90.08
2019-05-15T12:05:28.820Z,90.60
2019-05-15T12:06:29.275Z,91.22
2019-05-15T12:07:29.018Z,91.18
2019-05-15T12:08:29.380Z,89.94
2019-05-15T12:09:28.338Z,90.56
2019-05-15T12:10:28.894Z,90.39
2019-05-15T12:11:35.543Z,89.19
2019-05-15T12:12:31.890Z,90.33
2019-05-15T12:13:28.071Z,90.12
2019-05-15T12:14:29.648Z,91.37
2019-05-15T12:15:28.080Z,91.64
2019-05-15T12:16:28.975Z,91.85
2019-05-15T12:17:28.559Z,90.91
2019-05-15T12:18:28.782Z,90.50
2019-05-15T12:19:29.170Z,90.50
2019-05-15T12:20:30.529Z,90.50
2019-05-15T12:21:28.770Z,90.29
2019-05-15T12:22:28.950Z,90.39
2019-05-15T12:23:29.187Z,90.39
2019-05-15T12:24:35.031Z,90.50
2019-05-15T12:26:29.497Z,91.33
2019-05-15T12:27:28.705Z,90.29
2019-05-15T12:29:29.049Z,91.33
2019-05-15T12:30:29.583Z,91.22
2019-05-15T12:31:28.724Z,90.50
2019-05-15T12:32:35.567Z,90.04
2019-05-15T12:33:29.075Z,90.19
2019-05-15T12:34:28.983Z,90.50
2019-05-15T12:35:29.610Z,91.02
2019-05-15T12:36:50.213Z,90.50
2019-05-15T12:37:28.702Z,90.25
2019-05-15T12:38:28.838Z,91.18
2019-05-15T12:39:30.298Z,90.97
2019-05-15T12:59:44.828Z,91.86
2019-05-15T13:00:29.855Z,91.45
2019-05-15T13:01:29.534Z,91.76
2019-05-15T13:02:28.159Z,90.93
2019-05-15T13:03:29.000Z,90.56
2019-05-15T13:04:28.403Z,91.28
2019-05-15T13:05:29.090Z,91.80
2019-05-15T13:06:28.516Z,91.80
2019-05-15T13:07:28.534Z,91.74
2019-05-15T13:08:28.995Z,91.70
2019-05-15T13:09:30.705Z,91.91
2019-05-15T13:10:30.376Z,92.11
2019-05-15T13:11:28.432Z,92.53
2019-05-15T13:12:28.798Z,92.84
2019-05-15T13:13:28.328Z,92.22